sensor_id;sensor_type;location;lat;lon;timestamp;temperature;humidity
14705;DHT22;7442;50.840;3.396;2022-07-12T00:01:44;26.70;51.40
14705;DHT22;7442;50.840;3.396;2022-07-12T00:04:30;26.60;51.50
14705;DHT22;7442;50.840;3.396;2022-07-12T00:07:17;26.70;51.40
14705;DHT22;7442;50.840;3.396;2022-07-12T00:10:04;26.70;51.40
14705;DHT22;7442;50.840;3.396;2022-07-12T00:12:50;26.70;51.40
14705;DHT22;7442;50.840;3.396;2022-07-12T00:15:36;26.70;51.40
14705;DHT22;7442;50.840;3.396;2022-07-12T00:18:23;26.70;51.40
14705;DHT22;7442;50.840;3.396;2022-07-12T00:21:16;26.70;51.30
14705;DHT22;7442;50.840;3.396;2022-07-12T00:24:02;26.70;51.20
14705;DHT22;7442;50.840;3.396;2022-07-12T00:26:49;26.70;51.10
14705;DHT22;7442;50.840;3.396;2022-07-12T00:29:35;26.70;51.00
14705;DHT22;7442;50.840;3.396;2022-07-12T00:32:21;26.70;51.10
14705;DHT22;7442;50.840;3.396;2022-07-12T00:35:08;26.70;51.30
14705;DHT22;7442;50.840;3.396;2022-07-12T00:37:54;26.60;51.40
14705;DHT22;7442;50.840;3.396;2022-07-12T00:40:40;26.60;51.40
14705;DHT22;7442;50.840;3.396;2022-07-12T00:43:27;26.60;51.30
14705;DHT22;7442;50.840;3.396;2022-07-12T00:46:15;26.60;51.30
14705;DHT22;7442;50.840;3.396;2022-07-12T00:49:02;26.60;51.40
14705;DHT22;7442;50.840;3.396;2022-07-12T00:51:48;26.50;51.50
14705;DHT22;7442;50.840;3.396;2022-07-12T00:54:36;26.50;51.50
14705;DHT22;7442;50.840;3.396;2022-07-12T00:57:29;26.50;52.20
14705;DHT22;7442;50.840;3.396;2022-07-12T01:00:24;26.30;51.80
14705;DHT22;7442;50.840;3.396;2022-07-12T01:03:11;26.30;51.90
14705;DHT22;7442;50.840;3.396;2022-07-12T01:05:58;26.40;51.90
14705;DHT22;7442;50.840;3.396;2022-07-12T01:08:45;26.40;51.80
14705;DHT22;7442;50.840;3.396;2022-07-12T01:11:32;26.40;51.70
14705;DHT22;7442;50.840;3.396;2022-07-12T01:14:24;26.50;51.60
14705;DHT22;7442;50.840;3.396;2022-07-12T01:17:12;26.60;51.30
14705;DHT22;7442;50.840;3.396;2022-07-12T01:19:59;26.60;51.10
14705;DHT22;7442;50.840;3.396;2022-07-12T01:22:55;26.60;51.30
14705;DHT22;7442;50.840;3.396;2022-07-12T01:25:44;26.50;51.40
14705;DHT22;7442;50.840;3.396;2022-07-12T01:28:31;26.50;51.50
14705;DHT22;7442;50.840;3.396;2022-07-12T01:31:17;26.50;51.50
14705;DHT22;7442;50.840;3.396;2022-07-12T01:34:04;26.40;51.60
14705;DHT22;7442;50.840;3.396;2022-07-12T01:36:52;26.40;51.70
14705;DHT22;7442;50.840;3.396;2022-07-12T01:39:38;26.30;51.70
14705;DHT22;7442;50.840;3.396;2022-07-12T01:42:26;26.30;51.70
14705;DHT22;7442;50.840;3.396;2022-07-12T01:45:12;26.30;51.80
14705;DHT22;7442;50.840;3.396;2022-07-12T01:47:59;26.30;51.70
14705;DHT22;7442;50.840;3.396;2022-07-12T01:50:45;26.30;51.80
14705;DHT22;7442;50.840;3.396;2022-07-12T01:53:34;26.40;51.60
14705;DHT22;7442;50.840;3.396;2022-07-12T01:56:21;26.30;51.70
14705;DHT22;7442;50.840;3.396;2022-07-12T01:59:09;26.20;51.90
14705;DHT22;7442;50.840;3.396;2022-07-12T02:01:56;26.10;52.10
14705;DHT22;7442;50.840;3.396;2022-07-12T02:04:43;26.10;52.10
14705;DHT22;7442;50.840;3.396;2022-07-12T02:07:29;26.10;52.00
14705;DHT22;7442;50.840;3.396;2022-07-12T02:10:15;26.10;52.00
14705;DHT22;7442;50.840;3.396;2022-07-12T02:13:05;26.10;52.00
14705;DHT22;7442;50.840;3.396;2022-07-12T02:15:53;26.10;51.90
14705;DHT22;7442;50.840;3.396;2022-07-12T02:18:39;26.10;52.10
14705;DHT22;7442;50.840;3.396;2022-07-12T02:21:25;26.10;52.00
14705;DHT22;7442;50.840;3.396;2022-07-12T02:24:13;26.10;51.90
14705;DHT22;7442;50.840;3.396;2022-07-12T02:27:00;26.10;51.90
14705;DHT22;7442;50.840;3.396;2022-07-12T02:29:46;26.10;51.90
14705;DHT22;7442;50.840;3.396;2022-07-12T02:32:33;26.30;51.80
14705;DHT22;7442;50.840;3.396;2022-07-12T02:35:19;26.30;51.50
14705;DHT22;7442;50.840;3.396;2022-07-12T02:38:08;26.30;51.50
14705;DHT22;7442;50.840;3.396;2022-07-12T02:40:54;26.30;51.60
14705;DHT22;7442;50.840;3.396;2022-07-12T02:43:43;26.30;51.60
14705;DHT22;7442;50.840;3.396;2022-07-12T02:46:30;26.30;51.30
14705;DHT22;7442;50.840;3.396;2022-07-12T02:49:18;26.40;51.30
14705;DHT22;7442;50.840;3.396;2022-07-12T02:52:04;26.30;51.40
14705;DHT22;7442;50.840;3.396;2022-07-12T02:54:51;26.20;51.60
14705;DHT22;7442;50.840;3.396;2022-07-12T02:57:43;26.10;51.70
14705;DHT22;7442;50.840;3.396;2022-07-12T03:00:29;26.10;51.80
14705;DHT22;7442;50.840;3.396;2022-07-12T03:03:22;26.10;51.80
14705;DHT22;7442;50.840;3.396;2022-07-12T03:06:08;26.10;51.70
14705;DHT22;7442;50.840;3.396;2022-07-12T03:08:54;26.20;51.40
14705;DHT22;7442;50.840;3.396;2022-07-12T03:11:41;26.20;51.50
14705;DHT22;7442;50.840;3.396;2022-07-12T03:14:27;26.30;51.50
14705;DHT22;7442;50.840;3.396;2022-07-12T03:17:13;26.20;51.60
14705;DHT22;7442;50.840;3.396;2022-07-12T03:20:00;26.10;51.50
14705;DHT22;7442;50.840;3.396;2022-07-12T03:22:46;26.20;51.60
14705;DHT22;7442;50.840;3.396;2022-07-12T03:25:35;26.20;51.40
14705;DHT22;7442;50.840;3.396;2022-07-12T03:28:23;26.20;51.50
14705;DHT22;7442;50.840;3.396;2022-07-12T03:31:11;26.20;52.10
14705;DHT22;7442;50.840;3.396;2022-07-12T03:33:57;26.30;51.20
14705;DHT22;7442;50.840;3.396;2022-07-12T03:36:43;26.30;51.20
14705;DHT22;7442;50.840;3.396;2022-07-12T03:39:30;26.40;51.10
14705;DHT22;7442;50.840;3.396;2022-07-12T03:42:17;26.40;51.00
14705;DHT22;7442;50.840;3.396;2022-07-12T03:45:04;26.40;50.90
14705;DHT22;7442;50.840;3.396;2022-07-12T03:47:51;26.30;50.90
14705;DHT22;7442;50.840;3.396;2022-07-12T03:50:38;26.30;50.90
14705;DHT22;7442;50.840;3.396;2022-07-12T03:53:24;26.30;51.10
14705;DHT22;7442;50.840;3.396;2022-07-12T03:56:11;26.20;51.10
14705;DHT22;7442;50.840;3.396;2022-07-12T03:58:59;26.20;51.20
14705;DHT22;7442;50.840;3.396;2022-07-12T04:01:45;26.20;51.10
14705;DHT22;7442;50.840;3.396;2022-07-12T04:04:32;26.20;51.10
14705;DHT22;7442;50.840;3.396;2022-07-12T04:07:18;26.20;51.20
14705;DHT22;7442;50.840;3.396;2022-07-12T04:10:07;26.10;51.20
14705;DHT22;7442;50.840;3.396;2022-07-12T04:12:54;26.20;51.10
14705;DHT22;7442;50.840;3.396;2022-07-12T04:15:41;26.20;51.20
14705;DHT22;7442;50.840;3.396;2022-07-12T04:18:28;26.10;51.20
14705;DHT22;7442;50.840;3.396;2022-07-12T04:21:14;26.10;51.20
14705;DHT22;7442;50.840;3.396;2022-07-12T04:24:00;26.20;51.20
14705;DHT22;7442;50.840;3.396;2022-07-12T04:26:46;26.20;51.20
14705;DHT22;7442;50.840;3.396;2022-07-12T04:29:33;26.20;51.00
14705;DHT22;7442;50.840;3.396;2022-07-12T04:32:19;26.20;50.90
14705;DHT22;7442;50.840;3.396;2022-07-12T04:35:07;26.30;50.90
14705;DHT22;7442;50.840;3.396;2022-07-12T04:37:56;26.20;50.80
14705;DHT22;7442;50.840;3.396;2022-07-12T04:40:50;26.20;50.90
14705;DHT22;7442;50.840;3.396;2022-07-12T04:43:36;26.20;51.00
14705;DHT22;7442;50.840;3.396;2022-07-12T04:46:26;26.30;50.80
14705;DHT22;7442;50.840;3.396;2022-07-12T04:49:13;26.20;51.00
14705;DHT22;7442;50.840;3.396;2022-07-12T04:51:59;26.20;51.00
14705;DHT22;7442;50.840;3.396;2022-07-12T04:54:46;26.20;50.90
14705;DHT22;7442;50.840;3.396;2022-07-12T04:57:33;26.20;51.00
14705;DHT22;7442;50.840;3.396;2022-07-12T05:00:19;26.20;51.10
14705;DHT22;7442;50.840;3.396;2022-07-12T05:03:06;26.20;51.50
14705;DHT22;7442;50.840;3.396;2022-07-12T05:05:55;26.30;50.70
14705;DHT22;7442;50.840;3.396;2022-07-12T05:08:43;26.30;50.80
14705;DHT22;7442;50.840;3.396;2022-07-12T05:11:31;26.20;51.10
14705;DHT22;7442;50.840;3.396;2022-07-12T05:14:19;26.10;51.20
14705;DHT22;7442;50.840;3.396;2022-07-12T05:17:05;26.00;51.40
14705;DHT22;7442;50.840;3.396;2022-07-12T05:19:51;26.00;51.50
14705;DHT22;7442;50.840;3.396;2022-07-12T05:22:37;26.10;51.30
14705;DHT22;7442;50.840;3.396;2022-07-12T05:25:26;26.10;51.10
14705;DHT22;7442;50.840;3.396;2022-07-12T05:28:14;26.20;51.10
14705;DHT22;7442;50.840;3.396;2022-07-12T05:31:01;26.20;51.70
14705;DHT22;7442;50.840;3.396;2022-07-12T05:33:47;26.10;51.60
14705;DHT22;7442;50.840;3.396;2022-07-12T05:36:34;26.20;51.60
14705;DHT22;7442;50.840;3.396;2022-07-12T05:39:20;26.30;51.20
14705;DHT22;7442;50.840;3.396;2022-07-12T05:42:06;26.30;51.20
14705;DHT22;7442;50.840;3.396;2022-07-12T05:44:52;26.40;51.80
14705;DHT22;7442;50.840;3.396;2022-07-12T05:47:39;26.40;50.90
14705;DHT22;7442;50.840;3.396;2022-07-12T05:50:25;26.50;50.90
14705;DHT22;7442;50.840;3.396;2022-07-12T05:53:12;26.50;51.00
14705;DHT22;7442;50.840;3.396;2022-07-12T05:56:07;26.50;50.70
14705;DHT22;7442;50.840;3.396;2022-07-12T05:58:53;26.50;51.20
14705;DHT22;7442;50.840;3.396;2022-07-12T06:01:40;26.40;51.20
14705;DHT22;7442;50.840;3.396;2022-07-12T06:04:27;26.40;51.20
14705;DHT22;7442;50.840;3.396;2022-07-12T06:07:14;26.50;51.10
14705;DHT22;7442;50.840;3.396;2022-07-12T06:10:00;26.60;51.00
14705;DHT22;7442;50.840;3.396;2022-07-12T06:12:46;26.60;50.90
14705;DHT22;7442;50.840;3.396;2022-07-12T06:15:33;26.60;51.00
14705;DHT22;7442;50.840;3.396;2022-07-12T06:18:19;26.60;51.00
14705;DHT22;7442;50.840;3.396;2022-07-12T06:21:05;26.60;51.10
14705;DHT22;7442;50.840;3.396;2022-07-12T06:23:51;26.60;51.30
14705;DHT22;7442;50.840;3.396;2022-07-12T06:26:38;26.60;51.20
14705;DHT22;7442;50.840;3.396;2022-07-12T06:29:25;26.70;51.30
14705;DHT22;7442;50.840;3.396;2022-07-12T06:32:11;26.80;51.00
14705;DHT22;7442;50.840;3.396;2022-07-12T06:34:58;26.80;50.90
14705;DHT22;7442;50.840;3.396;2022-07-12T06:37:45;26.80;51.00
14705;DHT22;7442;50.840;3.396;2022-07-12T06:40:31;26.80;51.10
14705;DHT22;7442;50.840;3.396;2022-07-12T06:43:18;26.80;51.30
14705;DHT22;7442;50.840;3.396;2022-07-12T06:46:04;26.80;51.20
14705;DHT22;7442;50.840;3.396;2022-07-12T06:48:51;26.80;51.20
14705;DHT22;7442;50.840;3.396;2022-07-12T06:51:37;26.80;51.20
14705;DHT22;7442;50.840;3.396;2022-07-12T06:54:24;26.80;51.20
14705;DHT22;7442;50.840;3.396;2022-07-12T06:57:10;26.80;51.40
14705;DHT22;7442;50.840;3.396;2022-07-12T06:59:57;26.70;51.50
14705;DHT22;7442;50.840;3.396;2022-07-12T07:02:43;26.70;51.50
14705;DHT22;7442;50.840;3.396;2022-07-12T07:05:29;26.80;51.40
14705;DHT22;7442;50.840;3.396;2022-07-12T07:08:16;26.90;51.30
14705;DHT22;7442;50.840;3.396;2022-07-12T07:11:02;26.90;51.20
14705;DHT22;7442;50.840;3.396;2022-07-12T07:13:49;27.00;51.20
14705;DHT22;7442;50.840;3.396;2022-07-12T07:16:35;26.90;51.10
14705;DHT22;7442;50.840;3.396;2022-07-12T07:19:22;27.00;51.30
14705;DHT22;7442;50.840;3.396;2022-07-12T07:22:10;27.00;51.00
14705;DHT22;7442;50.840;3.396;2022-07-12T07:24:56;27.00;51.40
14705;DHT22;7442;50.840;3.396;2022-07-12T07:27:43;26.80;52.10
14705;DHT22;7442;50.840;3.396;2022-07-12T07:30:29;26.70;52.80
14705;DHT22;7442;50.840;3.396;2022-07-12T07:33:34;26.70;53.20
14705;DHT22;7442;50.840;3.396;2022-07-12T07:36:20;26.60;53.80
14705;DHT22;7442;50.840;3.396;2022-07-12T07:39:07;26.60;54.00
14705;DHT22;7442;50.840;3.396;2022-07-12T07:41:54;26.60;54.00
14705;DHT22;7442;50.840;3.396;2022-07-12T07:44:40;26.70;55.20
14705;DHT22;7442;50.840;3.396;2022-07-12T07:47:26;26.70;54.40
14705;DHT22;7442;50.840;3.396;2022-07-12T07:50:13;26.90;53.90
14705;DHT22;7442;50.840;3.396;2022-07-12T07:52:59;27.00;53.80
14705;DHT22;7442;50.840;3.396;2022-07-12T07:55:46;27.20;53.40
14705;DHT22;7442;50.840;3.396;2022-07-12T07:58:32;27.20;53.50
14705;DHT22;7442;50.840;3.396;2022-07-12T08:01:25;27.30;53.10
14705;DHT22;7442;50.840;3.396;2022-07-12T08:04:30;27.40;52.80
14705;DHT22;7442;50.840;3.396;2022-07-12T08:07:18;27.40;52.70
14705;DHT22;7442;50.840;3.396;2022-07-12T08:10:08;27.50;52.80
14705;DHT22;7442;50.840;3.396;2022-07-12T08:12:55;27.60;52.10
14705;DHT22;7442;50.840;3.396;2022-07-12T08:15:41;27.60;52.40
14705;DHT22;7442;50.840;3.396;2022-07-12T08:18:27;27.70;52.70
14705;DHT22;7442;50.840;3.396;2022-07-12T08:21:14;27.80;52.10
14705;DHT22;7442;50.840;3.396;2022-07-12T08:24:00;27.80;52.00
14705;DHT22;7442;50.840;3.396;2022-07-12T08:26:47;27.70;51.20
14705;DHT22;7442;50.840;3.396;2022-07-12T08:29:34;27.70;51.70
14705;DHT22;7442;50.840;3.396;2022-07-12T08:32:21;27.80;51.60
14705;DHT22;7442;50.840;3.396;2022-07-12T08:35:07;27.90;50.40
14705;DHT22;7442;50.840;3.396;2022-07-12T08:37:53;28.00;51.80
14705;DHT22;7442;50.840;3.396;2022-07-12T08:40:46;27.70;52.30
14705;DHT22;7442;50.840;3.396;2022-07-12T08:43:37;27.90;51.20
14705;DHT22;7442;50.840;3.396;2022-07-12T08:46:24;28.10;51.20
14705;DHT22;7442;50.840;3.396;2022-07-12T08:49:10;28.10;50.90
14705;DHT22;7442;50.840;3.396;2022-07-12T08:51:57;28.10;51.40
14705;DHT22;7442;50.840;3.396;2022-07-12T08:54:43;28.00;51.00
14705;DHT22;7442;50.840;3.396;2022-07-12T08:57:30;28.00;51.40
14705;DHT22;7442;50.840;3.396;2022-07-12T09:00:17;27.90;51.20
14705;DHT22;7442;50.840;3.396;2022-07-12T09:03:04;28.00;50.80
14705;DHT22;7442;50.840;3.396;2022-07-12T09:05:56;28.00;51.30
14705;DHT22;7442;50.840;3.396;2022-07-12T09:08:42;28.00;50.80
14705;DHT22;7442;50.840;3.396;2022-07-12T09:11:28;28.10;50.20
14705;DHT22;7442;50.840;3.396;2022-07-12T09:14:18;28.30;49.10
14705;DHT22;7442;50.840;3.396;2022-07-12T09:17:07;28.30;49.40
14705;DHT22;7442;50.840;3.396;2022-07-12T09:19:58;28.40;48.90
14705;DHT22;7442;50.840;3.396;2022-07-12T09:22:56;28.50;49.20
14705;DHT22;7442;50.840;3.396;2022-07-12T09:25:44;28.50;49.20
14705;DHT22;7442;50.840;3.396;2022-07-12T09:28:31;28.50;48.50
14705;DHT22;7442;50.840;3.396;2022-07-12T09:31:18;28.60;48.20
14705;DHT22;7442;50.840;3.396;2022-07-12T09:34:05;28.60;48.10
14705;DHT22;7442;50.840;3.396;2022-07-12T09:37:10;28.70;48.40
14705;DHT22;7442;50.840;3.396;2022-07-12T09:39:57;28.70;47.20
14705;DHT22;7442;50.840;3.396;2022-07-12T09:42:43;28.70;47.40
14705;DHT22;7442;50.840;3.396;2022-07-12T09:45:30;28.80;46.70
14705;DHT22;7442;50.840;3.396;2022-07-12T09:48:23;28.90;46.50
14705;DHT22;7442;50.840;3.396;2022-07-12T09:51:09;28.90;46.50
14705;DHT22;7442;50.840;3.396;2022-07-12T09:53:57;28.90;46.60
14705;DHT22;7442;50.840;3.396;2022-07-12T09:56:46;28.90;46.10
14705;DHT22;7442;50.840;3.396;2022-07-12T09:59:35;28.90;46.20
14705;DHT22;7442;50.840;3.396;2022-07-12T10:02:23;28.90;46.50
14705;DHT22;7442;50.840;3.396;2022-07-12T10:05:10;28.90;46.30
14705;DHT22;7442;50.840;3.396;2022-07-12T10:07:57;28.90;45.90
14705;DHT22;7442;50.840;3.396;2022-07-12T10:10:43;29.00;46.10
14705;DHT22;7442;50.840;3.396;2022-07-12T10:13:30;29.00;45.90
14705;DHT22;7442;50.840;3.396;2022-07-12T10:16:24;29.00;45.60
14705;DHT22;7442;50.840;3.396;2022-07-12T10:19:27;29.00;45.20
14705;DHT22;7442;50.840;3.396;2022-07-12T10:22:19;29.00;45.10
14705;DHT22;7442;50.840;3.396;2022-07-12T10:28:13;29.00;44.70
14705;DHT22;7442;50.840;3.396;2022-07-12T10:31:01;29.00;44.00
14705;DHT22;7442;50.840;3.396;2022-07-12T10:34:10;29.10;44.10
14705;DHT22;7442;50.840;3.396;2022-07-12T10:37:06;29.20;43.50
14705;DHT22;7442;50.840;3.396;2022-07-12T10:40:16;29.20;43.40
14705;DHT22;7442;50.840;3.396;2022-07-12T10:45:53;29.20;44.10
14705;DHT22;7442;50.840;3.396;2022-07-12T10:48:40;29.30;44.00
14705;DHT22;7442;50.840;3.396;2022-07-12T10:51:27;29.20;44.50
14705;DHT22;7442;50.840;3.396;2022-07-12T10:54:20;29.30;44.20
14705;DHT22;7442;50.840;3.396;2022-07-12T10:57:08;29.30;43.80
14705;DHT22;7442;50.840;3.396;2022-07-12T10:59:54;29.40;43.80
14705;DHT22;7442;50.840;3.396;2022-07-12T11:02:41;29.40;43.80
14705;DHT22;7442;50.840;3.396;2022-07-12T11:05:28;29.40;43.70
14705;DHT22;7442;50.840;3.396;2022-07-12T11:08:15;29.50;43.90
14705;DHT22;7442;50.840;3.396;2022-07-12T11:11:01;29.50;43.40
14705;DHT22;7442;50.840;3.396;2022-07-12T11:13:49;29.50;43.70
14705;DHT22;7442;50.840;3.396;2022-07-12T11:16:46;29.40;43.60
14705;DHT22;7442;50.840;3.396;2022-07-12T11:19:33;29.40;43.70
14705;DHT22;7442;50.840;3.396;2022-07-12T11:22:24;29.40;43.40
14705;DHT22;7442;50.840;3.396;2022-07-12T11:25:12;29.30;43.00
14705;DHT22;7442;50.840;3.396;2022-07-12T11:27:59;29.30;43.30
14705;DHT22;7442;50.840;3.396;2022-07-12T11:30:50;29.30;43.30
14705;DHT22;7442;50.840;3.396;2022-07-12T11:33:43;29.40;43.00
14705;DHT22;7442;50.840;3.396;2022-07-12T11:36:26;29.30;43.10
14705;DHT22;7442;50.840;3.396;2022-07-12T11:39:13;29.30;43.60
14705;DHT22;7442;50.840;3.396;2022-07-12T11:41:59;29.40;43.10
14705;DHT22;7442;50.840;3.396;2022-07-12T11:44:51;29.40;42.90
14705;DHT22;7442;50.840;3.396;2022-07-12T11:47:37;29.40;42.80
14705;DHT22;7442;50.840;3.396;2022-07-12T11:50:24;29.50;41.90
14705;DHT22;7442;50.840;3.396;2022-07-12T11:53:23;29.50;41.90
14705;DHT22;7442;50.840;3.396;2022-07-12T11:56:07;29.50;42.30
14705;DHT22;7442;50.840;3.396;2022-07-12T11:58:56;29.50;41.60
14705;DHT22;7442;50.840;3.396;2022-07-12T12:02:01;29.60;41.70
14705;DHT22;7442;50.840;3.396;2022-07-12T12:04:32;29.50;42.00
14705;DHT22;7442;50.840;3.396;2022-07-12T12:07:21;29.50;42.10
14705;DHT22;7442;50.840;3.396;2022-07-12T12:10:12;29.50;42.00
14705;DHT22;7442;50.840;3.396;2022-07-12T12:13:02;29.50;41.70
14705;DHT22;7442;50.840;3.396;2022-07-12T12:15:57;29.50;41.90
14705;DHT22;7442;50.840;3.396;2022-07-12T12:18:44;29.40;41.70
14705;DHT22;7442;50.840;3.396;2022-07-12T12:21:34;29.30;41.80
14705;DHT22;7442;50.840;3.396;2022-07-12T12:24:20;29.40;41.70
14705;DHT22;7442;50.840;3.396;2022-07-12T12:27:22;29.40;41.20
14705;DHT22;7442;50.840;3.396;2022-07-12T12:30:10;29.40;41.30
14705;DHT22;7442;50.840;3.396;2022-07-12T12:32:59;29.50;41.30
14705;DHT22;7442;50.840;3.396;2022-07-12T12:35:45;29.50;41.20
14705;DHT22;7442;50.840;3.396;2022-07-12T12:38:31;29.50;41.30
14705;DHT22;7442;50.840;3.396;2022-07-12T12:41:25;29.50;41.20
14705;DHT22;7442;50.840;3.396;2022-07-12T12:44:12;29.50;41.10
14705;DHT22;7442;50.840;3.396;2022-07-12T12:47:01;29.60;41.80
14705;DHT22;7442;50.840;3.396;2022-07-12T12:50:07;29.50;40.90
14705;DHT22;7442;50.840;3.396;2022-07-12T12:52:53;29.50;41.00
14705;DHT22;7442;50.840;3.396;2022-07-12T12:55:41;29.50;41.10
14705;DHT22;7442;50.840;3.396;2022-07-12T12:58:28;29.50;40.80
14705;DHT22;7442;50.840;3.396;2022-07-12T13:01:18;29.50;40.80
14705;DHT22;7442;50.840;3.396;2022-07-12T13:04:08;29.50;40.40
14705;DHT22;7442;50.840;3.396;2022-07-12T13:06:53;29.50;40.40
14705;DHT22;7442;50.840;3.396;2022-07-12T13:09:41;29.60;40.50
14705;DHT22;7442;50.840;3.396;2022-07-12T13:12:28;29.60;40.70
14705;DHT22;7442;50.840;3.396;2022-07-12T13:15:14;29.60;40.70
14705;DHT22;7442;50.840;3.396;2022-07-12T13:18:02;29.60;40.80
14705;DHT22;7442;50.840;3.396;2022-07-12T13:20:52;29.60;40.80
14705;DHT22;7442;50.840;3.396;2022-07-12T13:23:38;29.60;40.20
14705;DHT22;7442;50.840;3.396;2022-07-12T13:26:25;29.70;40.10
14705;DHT22;7442;50.840;3.396;2022-07-12T13:29:12;29.70;40.00
14705;DHT22;7442;50.840;3.396;2022-07-12T13:32:00;29.80;39.60
14705;DHT22;7442;50.840;3.396;2022-07-12T13:34:50;29.70;39.70
14705;DHT22;7442;50.840;3.396;2022-07-12T13:37:39;29.70;39.50
14705;DHT22;7442;50.840;3.396;2022-07-12T13:40:26;29.70;39.00
14705;DHT22;7442;50.840;3.396;2022-07-12T13:43:12;29.80;39.60
14705;DHT22;7442;50.840;3.396;2022-07-12T13:45:59;29.90;37.60
14705;DHT22;7442;50.840;3.396;2022-07-12T13:48:46;29.90;38.40
14705;DHT22;7442;50.840;3.396;2022-07-12T13:51:32;29.90;38.70
14705;DHT22;7442;50.840;3.396;2022-07-12T13:54:18;29.90;38.90
14705;DHT22;7442;50.840;3.396;2022-07-12T13:57:05;29.80;39.10
14705;DHT22;7442;50.840;3.396;2022-07-12T13:59:52;29.80;39.40
14705;DHT22;7442;50.840;3.396;2022-07-12T14:02:42;29.80;39.60
14705;DHT22;7442;50.840;3.396;2022-07-12T14:05:29;29.80;39.90
14705;DHT22;7442;50.840;3.396;2022-07-12T14:08:17;29.80;39.80
14705;DHT22;7442;50.840;3.396;2022-07-12T14:11:03;29.80;39.60
14705;DHT22;7442;50.840;3.396;2022-07-12T14:13:49;29.80;39.80
14705;DHT22;7442;50.840;3.396;2022-07-12T14:16:38;29.80;39.90
14705;DHT22;7442;50.840;3.396;2022-07-12T14:19:24;29.90;39.70
14705;DHT22;7442;50.840;3.396;2022-07-12T14:22:10;29.90;39.40
14705;DHT22;7442;50.840;3.396;2022-07-12T14:24:57;29.90;39.20
14705;DHT22;7442;50.840;3.396;2022-07-12T14:27:43;29.90;39.00
14705;DHT22;7442;50.840;3.396;2022-07-12T14:30:32;29.90;38.90
14705;DHT22;7442;50.840;3.396;2022-07-12T14:33:20;29.90;38.80
14705;DHT22;7442;50.840;3.396;2022-07-12T14:36:06;29.90;39.00
14705;DHT22;7442;50.840;3.396;2022-07-12T14:38:53;29.80;39.10
14705;DHT22;7442;50.840;3.396;2022-07-12T14:41:39;29.80;39.50
14705;DHT22;7442;50.840;3.396;2022-07-12T14:44:25;29.80;39.80
14705;DHT22;7442;50.840;3.396;2022-07-12T14:47:12;29.80;39.90
14705;DHT22;7442;50.840;3.396;2022-07-12T14:49:58;29.80;40.10
14705;DHT22;7442;50.840;3.396;2022-07-12T14:52:47;29.80;40.20
14705;DHT22;7442;50.840;3.396;2022-07-12T14:55:34;29.70;40.40
14705;DHT22;7442;50.840;3.396;2022-07-12T14:58:20;29.60;40.50
14705;DHT22;7442;50.840;3.396;2022-07-12T15:01:08;29.60;40.70
14705;DHT22;7442;50.840;3.396;2022-07-12T15:03:55;29.60;40.90
14705;DHT22;7442;50.840;3.396;2022-07-12T15:06:41;29.60;41.10
14705;DHT22;7442;50.840;3.396;2022-07-12T15:09:27;29.60;41.20
14705;DHT22;7442;50.840;3.396;2022-07-12T15:12:13;29.60;41.20
14705;DHT22;7442;50.840;3.396;2022-07-12T15:15:00;29.60;41.30
14705;DHT22;7442;50.840;3.396;2022-07-12T15:17:47;29.60;41.40
14705;DHT22;7442;50.840;3.396;2022-07-12T15:20:34;29.70;41.30
14705;DHT22;7442;50.840;3.396;2022-07-12T15:23:21;29.70;41.30
14705;DHT22;7442;50.840;3.396;2022-07-12T15:26:07;29.70;41.30
14705;DHT22;7442;50.840;3.396;2022-07-12T15:28:59;29.70;41.40
14705;DHT22;7442;50.840;3.396;2022-07-12T15:31:49;29.70;41.70
14705;DHT22;7442;50.840;3.396;2022-07-12T15:34:36;29.80;41.70
14705;DHT22;7442;50.840;3.396;2022-07-12T15:37:23;29.80;41.80
14705;DHT22;7442;50.840;3.396;2022-07-12T15:40:10;29.80;41.50
14705;DHT22;7442;50.840;3.396;2022-07-12T15:43:04;29.80;41.30
14705;DHT22;7442;50.840;3.396;2022-07-12T15:45:50;29.90;41.20
14705;DHT22;7442;50.840;3.396;2022-07-12T15:48:38;30.00;41.00
14705;DHT22;7442;50.840;3.396;2022-07-12T15:51:26;29.90;41.00
14705;DHT22;7442;50.840;3.396;2022-07-12T15:54:31;29.90;40.70
14705;DHT22;7442;50.840;3.396;2022-07-12T15:57:17;29.90;40.80
14705;DHT22;7442;50.840;3.396;2022-07-12T16:00:04;29.80;41.10
14705;DHT22;7442;50.840;3.396;2022-07-12T16:02:53;29.90;40.70
14705;DHT22;7442;50.840;3.396;2022-07-12T16:05:40;29.80;40.70
14705;DHT22;7442;50.840;3.396;2022-07-12T16:08:27;29.80;40.80
14705;DHT22;7442;50.840;3.396;2022-07-12T16:11:14;29.90;40.80
14705;DHT22;7442;50.840;3.396;2022-07-12T16:14:02;29.90;40.70
14705;DHT22;7442;50.840;3.396;2022-07-12T16:16:48;30.00;40.90
14705;DHT22;7442;50.840;3.396;2022-07-12T16:19:35;29.90;40.70
14705;DHT22;7442;50.840;3.396;2022-07-12T16:22:21;29.90;40.70
14705;DHT22;7442;50.840;3.396;2022-07-12T16:25:09;29.80;40.20
14705;DHT22;7442;50.840;3.396;2022-07-12T16:27:55;29.90;39.40
14705;DHT22;7442;50.840;3.396;2022-07-12T16:30:42;29.90;39.80
14705;DHT22;7442;50.840;3.396;2022-07-12T16:33:35;29.90;39.50
14705;DHT22;7442;50.840;3.396;2022-07-12T16:36:22;29.90;39.80
14705;DHT22;7442;50.840;3.396;2022-07-12T16:39:10;29.80;40.10
14705;DHT22;7442;50.840;3.396;2022-07-12T16:41:57;29.70;40.50
14705;DHT22;7442;50.840;3.396;2022-07-12T16:44:43;29.70;40.00
14705;DHT22;7442;50.840;3.396;2022-07-12T16:47:30;29.70;40.30
14705;DHT22;7442;50.840;3.396;2022-07-12T16:50:16;29.70;40.40
14705;DHT22;7442;50.840;3.396;2022-07-12T16:53:02;29.80;40.30
14705;DHT22;7442;50.840;3.396;2022-07-12T16:55:49;29.90;40.00
14705;DHT22;7442;50.840;3.396;2022-07-12T16:58:37;29.80;40.00
14705;DHT22;7442;50.840;3.396;2022-07-12T17:01:26;29.90;40.00
14705;DHT22;7442;50.840;3.396;2022-07-12T17:04:12;29.90;40.20
14705;DHT22;7442;50.840;3.396;2022-07-12T17:06:59;29.90;40.40
14705;DHT22;7442;50.840;3.396;2022-07-12T17:09:45;29.90;40.10
14705;DHT22;7442;50.840;3.396;2022-07-12T17:12:33;29.90;40.80
14705;DHT22;7442;50.840;3.396;2022-07-12T17:15:19;29.90;40.70
14705;DHT22;7442;50.840;3.396;2022-07-12T17:18:06;29.90;40.90
14705;DHT22;7442;50.840;3.396;2022-07-12T17:20:53;29.90;41.20
14705;DHT22;7442;50.840;3.396;2022-07-12T17:23:39;29.80;41.40
14705;DHT22;7442;50.840;3.396;2022-07-12T17:26:26;29.90;41.50
14705;DHT22;7442;50.840;3.396;2022-07-12T17:29:12;29.90;41.70
14705;DHT22;7442;50.840;3.396;2022-07-12T17:31:59;29.80;41.70
14705;DHT22;7442;50.840;3.396;2022-07-12T17:34:45;29.90;41.20
14705;DHT22;7442;50.840;3.396;2022-07-12T17:37:31;29.80;41.40
14705;DHT22;7442;50.840;3.396;2022-07-12T17:40:18;29.70;41.40
14705;DHT22;7442;50.840;3.396;2022-07-12T17:43:04;29.70;41.70
14705;DHT22;7442;50.840;3.396;2022-07-12T17:45:51;29.70;41.30
14705;DHT22;7442;50.840;3.396;2022-07-12T17:48:37;29.70;41.60
14705;DHT22;7442;50.840;3.396;2022-07-12T17:51:26;29.80;41.80
14705;DHT22;7442;50.840;3.396;2022-07-12T17:54:12;29.80;41.40
14705;DHT22;7442;50.840;3.396;2022-07-12T17:57:00;29.70;41.00
14705;DHT22;7442;50.840;3.396;2022-07-12T17:59:47;29.60;41.60
14705;DHT22;7442;50.840;3.396;2022-07-12T18:02:34;29.60;42.30